Time;durP1;ratioP1;P1;durP2;ratioP2;P2;SDS_P1;SDS_P2;PMS_P1;PMS_P2;Temp;Humidity;BMP_temperature;BMP_pressure;BME280_temperature;BME280_humidity;BME280_pressure;Samples;Min_cycle;Max_cycle;Signal;HPM_P1;HPM_P2
2023/09/08 00:00:09;;;;;;;8.68;4.50;;;;;;;26.59;39.88;100330.56;4486055;31;34818;-69
2023/09/08 00:02:37;;;;;;;7.87;4.85;;;;;;;26.58;39.90;100323.41;4470016;32;34684;-68
2023/09/08 00:05:05;;;;;;;7.18;4.30;;;;;;;26.57;39.92;100329.94;4484008;32;34030;-68
2023/09/08 00:07:33;;;;;;;7.05;4.53;;;;;;;26.58;39.88;100323.41;4483948;32;33967;-68
2023/09/08 00:10:01;;;;;;;8.25;4.32;;;;;;;26.58;39.87;100323.41;4477412;32;33817;-68
2023/09/08 00:12:29;;;;;;;7.75;5.10;;;;;;;26.58;39.82;100326.16;4472166;32;33833;-68
2023/09/08 00:14:56;;;;;;;6.35;4.53;;;;;;;26.57;39.87;100335.41;4483787;32;32997;-68
2023/09/08 00:17:24;;;;;;;6.20;4.10;;;;;;;26.57;39.85;100321.72;4483848;32;34693;-68
2023/09/08 00:19:52;;;;;;;9.00;4.70;;;;;;;26.56;39.85;100328.28;4483886;32;34759;-68
2023/09/08 00:22:20;;;;;;;6.35;4.35;;;;;;;26.57;39.85;100332.69;4483623;32;33302;-68
2023/09/08 00:24:48;;;;;;;6.50;4.10;;;;;;;26.56;39.79;100325.53;4483804;32;33371;-68
2023/09/08 00:27:15;;;;;;;7.28;4.65;;;;;;;26.56;39.83;100333.75;4477596;32;33466;-68
2023/09/08 00:29:43;;;;;;;6.22;4.10;;;;;;;26.57;39.84;100334.59;4468009;32;33644;-68
2023/09/08 00:32:11;;;;;;;8.02;4.32;;;;;;;26.55;39.86;100334.81;4468045;32;33947;-68
2023/09/08 00:34:40;;;;;;;7.40;4.43;;;;;;;26.56;39.76;100333.75;4468095;32;33048;-68
2023/09/08 00:37:09;;;;;;;6.27;3.93;;;;;;;26.56;39.67;100333.75;4453845;32;33467;-68
2023/09/08 00:39:37;;;;;;;7.65;4.95;;;;;;;26.57;39.65;100329.09;4466732;32;34123;-68
2023/09/08 00:42:06;;;;;;;7.30;4.40;;;;;;;26.57;39.72;100326.38;4467781;32;35172;-68
2023/09/08 00:44:34;;;;;;;10.18;4.80;;;;;;;26.56;39.83;100327.44;4441840;32;33672;-68
2023/09/08 00:47:02;;;;;;;6.82;4.10;;;;;;;26.56;39.84;100322.81;4467811;32;34006;-68
2023/09/08 00:49:30;;;;;;;9.07;4.55;;;;;;;26.55;39.80;100323.88;4459508;32;34242;-68
2023/09/08 00:51:57;;;;;;;7.18;4.37;;;;;;;26.55;39.80;100326.62;4467818;32;34414;-68
2023/09/08 00:54:25;;;;;;;11.93;4.93;;;;;;;26.55;39.78;100317.56;4466602;32;33375;-68
2023/09/08 00:56:55;;;;;;;6.80;4.12;;;;;;;26.54;39.77;100318.66;4453649;32;33673;-68
2023/09/08 00:59:24;;;;;;;6.45;4.65;;;;;;;26.54;39.79;100318.66;4466648;32;33196;-68
2023/09/08 01:01:52;;;;;;;;;;;;;;;26.53;39.77;100309.59;4454928;32;33824;-68
2023/09/08 01:04:20;;;;;;;9.38;4.50;;;;;;;26.62;39.58;100307.34;4467596;32;33418;-68
2023/09/08 01:06:48;;;;;;;7.12;4.20;;;;;;;26.55;39.70;100307.47;4453573;32;34738;-68
2023/09/08 01:09:17;;;;;;;6.70;4.37;;;;;;;26.53;39.75;100304.09;4440865;32;33575;-68
2023/09/08 01:11:45;;;;;;;7.32;4.57;;;;;;;26.52;39.77;100307.91;4466316;32;33605;-68
2023/09/08 01:14:17;;;;;;;;;;;;;;;26.52;39.75;100294.25;4454005;32;33447;-68
2023/09/08 01:16:45;;;;;;;7.90;3.90;;;;;;;26.60;39.57;100298.53;4466338;32;34254;-68
2023/09/08 01:19:13;;;;;;;7.70;4.10;;;;;;;26.53;39.58;100303.28;4467659;32;34019;-68
2023/09/08 01:22:18;;;;;;;6.32;4.18;;;;;;;26.51;39.65;100300.78;4467353;32;33499;-68
2023/09/08 01:24:59;;;;;;;8.32;4.47;;;;;;;26.52;39.61;100312.56;4469650;32;34083;-68
2023/09/08 01:27:27;;;;;;;7.40;4.80;;;;;;;26.50;39.68;100310.06;4468084;32;34657;-68
2023/09/08 01:29:56;;;;;;;7.47;4.68;;;;;;;26.49;39.71;100302.06;4455516;32;33498;-68
2023/09/08 01:32:23;;;;;;;5.75;3.92;;;;;;;26.48;39.73;100298.50;4468328;32;34103;-68
2023/09/08 01:34:51;;;;;;;7.85;4.82;;;;;;;26.49;39.69;100293.88;4456123;32;34338;-68
2023/09/08 01:37:22;;;;;;;7.50;4.30;;;;;;;26.48;39.72;100289.47;4455416;32;33666;-68
2023/09/08 01:39:50;;;;;;;7.28;4.28;;;;;;;26.45;39.72;100286.16;4468219;32;33797;-69
2023/09/08 01:42:18;;;;;;;7.22;4.70;;;;;;;26.48;39.73;100290.31;4467952;32;33574;-69
2023/09/08 01:44:46;;;;;;;7.45;4.78;;;;;;;26.47;39.73;100287.81;4469346;32;33491;-68
2023/09/08 01:47:14;;;;;;;6.70;4.32;;;;;;;26.48;39.71;100287.56;4467991;32;33878;-68
2023/09/08 01:49:41;;;;;;;6.60;4.10;;;;;;;26.48;39.73;100293.03;4479177;32;33989;-68
2023/09/08 01:52:09;;;;;;;6.30;4.15;;;;;;;26.47;39.75;100288.63;4482973;32;33437;-68
2023/09/08 01:54:37;;;;;;;7.05;4.18;;;;;;;26.48;39.76;100286.72;4484793;32;32948;-68
2023/09/08 01:57:04;;;;;;;6.80;4.30;;;;;;;26.48;39.75;100284.00;4484732;32;33850;-68
2023/09/08 01:59:32;;;;;;;7.95;4.68;;;;;;;26.48;39.73;100289.47;4484954;32;34053;-68
2023/09/08 02:02:00;;;;;;;7.10;4.20;;;;;;;26.48;39.71;100281.25;4485107;32;34466;-68
2023/09/08 02:04:28;;;;;;;7.43;4.12;;;;;;;26.47;39.76;100285.91;4485026;32;32706;-68
2023/09/08 02:06:57;;;;;;;6.78;4.35;;;;;;;26.48;39.79;100295.78;4483511;32;33028;-68
2023/09/08 02:09:38;;;;;;;8.02;4.53;;;;;;;26.48;39.79;100295.78;4482874;32;33981;-68
2023/09/08 02:12:06;;;;;;;6.22;4.00;;;;;;;26.49;39.78;100297.47;4484874;32;33439;-68
2023/09/08 02:14:35;;;;;;;10.20;4.50;;;;;;;26.47;39.74;100290.53;4484705;32;34082;-68
2023/09/08 02:17:03;;;;;;;6.53;4.40;;;;;;;26.47;39.70;100291.37;4484665;32;34732;-68
2023/09/08 02:19:30;;;;;;;8.50;4.70;;;;;;;26.47;39.69;100290.53;4484647;32;33588;-68
2023/09/08 02:21:58;;;;;;;6.43;4.40;;;;;;;26.48;39.70;100292.22;4484648;32;33911;-68
2023/09/08 02:24:26;;;;;;;7.28;4.70;;;;;;;26.47;39.72;100290.53;4483565;32;32490;-68
2023/09/08 02:26:54;;;;;;;7.25;3.80;;;;;;;26.45;39.74;100285.31;4483047;32;34685;-68
2023/09/08 02:29:22;;;;;;;6.05;4.10;;;;;;;26.45;39.74;100288.88;4484987;32;34674;-68
2023/09/08 02:31:50;;;;;;;6.35;3.78;;;;;;;26.46;39.72;100292.44;4484422;32;34589;-68
2023/09/08 02:34:18;;;;;;;6.20;4.28;;;;;;;26.45;39.72;100288.88;4484869;32;33562;-68
2023/09/08 02:36:47;;;;;;;6.90;4.40;;;;;;;26.44;39.70;100284.47;4484861;32;33981;-68
2023/09/08 02:39:16;;;;;;;7.22;4.12;;;;;;;26.45;39.66;100288.06;4484579;32;33760;-68
2023/09/08 02:41:44;;;;;;;9.02;4.25;;;;;;;26.45;39.60;100291.63;4470632;32;32928;-68
2023/09/08 02:44:13;;;;;;;6.95;3.87;;;;;;;26.44;39.58;100289.97;4483740;32;34186;-68
2023/09/08 02:46:40;;;;;;;6.20;4.00;;;;;;;26.44;39.54;100291.87;4484794;32;34666;-68
2023/09/08 02:49:09;;;;;;;6.80;4.03;;;;;;;26.44;39.56;100294.59;4483486;32;34356;-68
2023/09/08 02:51:37;;;;;;;6.78;4.72;;;;;;;26.42;39.55;100293.94;4484743;32;33822;-68
2023/09/08 02:54:05;;;;;;;6.78;4.20;;;;;;;26.42;39.57;100286.56;4484530;32;33450;-68
2023/09/08 02:56:34;;;;;;;9.30;4.70;;;;;;;26.43;39.57;100298.37;4484613;32;34413;-68
2023/09/08 02:59:01;;;;;;;7.20;4.30;;;;;;;26.42;39.58;100294.78;4483073;32;34739;-68
2023/09/08 03:01:30;;;;;;;7.50;4.32;;;;;;;26.42;39.59;100293.94;4484447;32;33702;-68
2023/09/08 03:03:58;;;;;;;7.40;4.50;;;;;;;26.41;39.63;100298.59;4484458;32;33385;-68
2023/09/08 03:06:26;;;;;;;6.60;4.50;;;;;;;26.41;39.65;100293.12;4484584;32;34237;-68
2023/09/08 03:08:55;;;;;;;7.73;4.60;;;;;;;26.41;39.62;100293.12;4484525;32;34114;-68
2023/09/08 03:11:23;;;;;;;6.53;4.32;;;;;;;26.41;39.63;100295.03;4484650;32;33847;-68
2023/09/08 03:13:50;;;;;;;7.12;4.43;;;;;;;26.41;39.63;100297.75;4484209;32;34480;-69
2023/09/08 03:16:18;;;;;;;7.05;4.10;;;;;;;26.39;39.59;100292.53;4484331;32;34594;-69
2023/09/08 03:18:48;;;;;;;;;;;;;;;26.39;39.61;100300.75;4484747;32;33474;-69
2023/09/08 03:21:15;;;;;;;7.30;4.40;;;;;;;26.50;39.45;100298.28;4484313;32;34243;-68
2023/09/08 03:23:43;;;;;;;6.07;4.12;;;;;;;26.40;39.56;100291.47;4484366;32;33146;-68
2023/09/08 03:26:11;;;;;;;6.80;3.78;;;;;;;26.38;39.63;100296.31;4484391;32;34089;-68
2023/09/08 03:28:39;;;;;;;5.85;4.07;;;;;;;26.37;39.63;100289.19;4482851;32;34094;-68
2023/09/08 03:31:07;;;;;;;6.35;4.07;;;;;;;26.37;39.61;100293.81;4484302;32;34608;-68
2023/09/08 03:33:35;;;;;;;7.97;4.28;;;;;;;26.37;39.61;100300.12;4484503;32;33322;-68
2023/09/08 03:36:03;;;;;;;7.80;4.45;;;;;;;26.36;39.59;100298.47;4484340;32;34269;-68
2023/09/08 03:38:31;;;;;;;6.25;4.28;;;;;;;26.36;39.59;100289.44;4484474;32;33919;-68
2023/09/08 03:40:59;;;;;;;8.13;3.90;;;;;;;26.35;39.59;100299.53;4484568;32;33856;-68
2023/09/08 03:43:27;;;;;;;8.00;4.28;;;;;;;26.36;39.57;100294.91;4483104;32;33113;-68
2023/09/08 03:45:56;;;;;;;6.97;4.12;;;;;;;26.37;39.58;100302.88;4484165;32;34077;-67
2023/09/08 03:48:24;;;;;;;7.28;3.92;;;;;;;26.35;39.59;100294.06;4482896;32;34013;-67
2023/09/08 03:50:51;;;;;;;7.03;4.60;;;;;;;26.35;39.59;100296.81;4484323;32;33869;-67
2023/09/08 03:53:19;;;;;;;7.10;4.10;;;;;;;26.35;39.55;100290.50;4484185;32;33084;-68
2023/09/08 03:55:47;;;;;;;6.57;4.10;;;;;;;26.35;39.58;100295.97;4483930;32;33547;-68
2023/09/08 03:58:15;;;;;;;6.60;4.30;;;;;;;26.35;39.55;100293.25;4484022;32;34787;-68
2023/09/08 04:00:43;;;;;;;7.03;4.70;;;;;;;26.33;39.54;100296.19;4484065;32;34905;-68
2023/09/08 04:03:11;;;;;;;8.52;4.82;;;;;;;26.34;39.51;100302.50;4482698;32;33629;-68
2023/09/08 04:05:39;;;;;;;6.50;4.40;;;;;;;26.33;39.55;100296.19;4484065;32;33117;-68
2023/09/08 04:08:06;;;;;;;6.82;4.15;;;;;;;26.33;39.55;100298.91;4483986;32;33991;-68
2023/09/08 04:10:34;;;;;;;7.25;4.47;;;;;;;26.32;39.54;100299.16;4483746;32;35229;-68
2023/09/08 04:13:01;;;;;;;6.47;4.10;;;;;;;26.32;39.55;100301.91;4483957;32;33154;-68
2023/09/08 04:15:29;;;;;;;7.82;4.50;;;;;;;26.32;39.55;100305.47;4482872;32;33733;-68
2023/09/08 04:17:57;;;;;;;6.40;3.95;;;;;;;26.32;39.56;100299.16;4483817;32;34862;-68
2023/09/08 04:20:25;;;;;;;6.85;4.50;;;;;;;26.31;39.55;100303.81;4484126;32;34635;-68
2023/09/08 04:22:53;;;;;;;7.50;4.47;;;;;;;26.32;39.53;100304.63;4484061;32;33398;-68
2023/09/08 04:25:21;;;;;;;7.50;4.37;;;;;;;26.31;39.47;100302.97;4482399;32;34386;-68
2023/09/08 04:27:49;;;;;;;8.00;4.18;;;;;;;26.30;39.46;100301.28;4482932;32;33944;-68
2023/09/08 04:30:17;;;;;;;7.35;4.25;;;;;;;26.30;39.42;100302.16;4484148;32;33320;-68
2023/09/08 04:32:45;;;;;;;7.93;4.83;;;;;;;26.29;39.42;100300.44;4483738;32;33092;-66
2023/09/08 04:35:13;;;;;;;6.35;4.03;;;;;;;26.30;39.46;100310.34;4483667;32;33719;-68
2023/09/08 04:37:41;;;;;;;8.40;4.15;;;;;;;26.29;39.56;100311.41;4483526;32;33947;-68
2023/09/08 04:40:09;;;;;;;7.60;4.30;;;;;;;26.30;39.51;100309.50;4483508;32;33917;-68
2023/09/08 04:42:37;;;;;;;9.23;4.72;;;;;;;26.29;39.54;100305.94;4483865;32;34193;-68
2023/09/08 04:45:05;;;;;;;8.77;4.93;;;;;;;26.29;39.59;100305.09;4482374;32;33479;-68
2023/09/08 04:47:33;;;;;;;6.85;4.40;;;;;;;26.28;39.60;100306.16;4483271;32;34029;-67
2023/09/08 04:50:01;;;;;;;6.87;4.60;;;;;;;26.29;39.65;100310.56;4483566;32;34173;-68
2023/09/08 04:52:28;;;;;;;8.93;4.90;;;;;;;26.28;39.70;100311.63;4483527;32;33434;-68
2023/09/08 04:54:56;;;;;;;8.00;4.80;;;;;;;26.28;39.69;100322.59;4484774;32;33974;-68
2023/09/08 04:57:26;;;;;;;7.68;4.57;;;;;;;26.28;39.69;100319.84;4489022;32;33402;-70
2023/09/08 05:00:17;;;;;;;8.75;4.55;;;;;;;26.27;39.75;100321.75;4488445;32;34972;-70
2023/09/08 05:02:45;;;;;;;7.32;4.30;;;;;;;26.28;39.74;100323.41;4487564;32;33081;-68
2023/09/08 05:05:13;;;;;;;8.18;4.72;;;;;;;26.27;39.78;100320.91;4488348;32;34432;-69
2023/09/08 05:07:42;;;;;;;7.43;4.57;;;;;;;26.27;39.82;100319.00;4486238;32;35033;-69
2023/09/08 05:10:09;;;;;;;8.90;4.53;;;;;;;26.26;39.89;100322.81;4488590;32;34612;-69
2023/09/08 05:12:38;;;;;;;15.55;5.50;;;;;;;26.27;40.02;100318.19;4466970;32;32917;-69
2023/09/08 05:15:10;;;;;;;11.38;5.05;;;;;;;26.27;40.09;100320.91;4472976;32;33645;-69
2023/09/08 05:17:38;;;;;;;13.32;4.72;;;;;;;26.27;40.07;100324.50;4477557;32;33952;-69
2023/09/08 05:20:07;;;;;;;15.90;5.43;;;;;;;26.27;40.03;100324.50;4487824;32;33849;-69
2023/09/08 05:22:35;;;;;;;13.82;5.32;;;;;;;26.27;40.06;100326.41;4487451;32;33566;-69
2023/09/08 05:25:03;;;;;;;9.85;5.00;;;;;;;26.27;40.04;100326.41;4487583;32;34012;-70
2023/09/08 05:27:31;;;;;;;11.40;4.68;;;;;;;26.26;40.08;100330.19;4487700;32;34824;-70
2023/09/08 05:29:59;;;;;;;7.60;4.87;;;;;;;26.26;40.11;100331.03;4487691;32;34668;-70
2023/09/08 05:32:27;;;;;;;8.70;5.18;;;;;;;26.25;40.13;100333.97;4487368;32;34193;-69
2023/09/08 05:34:55;;;;;;;10.25;4.85;;;;;;;26.25;40.14;100332.06;4479775;32;33829;-70
2023/09/08 05:37:23;;;;;;;10.35;5.15;;;;;;;26.25;40.17;100333.97;4487919;32;34032;-70
2023/09/08 05:39:51;;;;;;;7.93;4.87;;;;;;;26.23;40.22;100331.50;4486469;32;34338;-69
2023/09/08 05:42:18;;;;;;;9.15;5.35;;;;;;;26.24;40.24;100324.13;4486001;32;34780;-68
2023/09/08 05:44:47;;;;;;;7.82;4.50;;;;;;;26.23;40.27;100331.50;4486424;32;34109;-68
2023/09/08 05:47:15;;;;;;;8.70;4.72;;;;;;;26.23;40.31;100325.19;4486341;32;33566;-68
2023/09/08 05:49:44;;;;;;;8.90;4.80;;;;;;;26.23;40.31;100333.38;4485959;32;33679;-68
2023/09/08 05:52:12;;;;;;;8.13;5.47;;;;;;;26.23;40.34;100328.75;4486007;32;34056;-68
2023/09/08 05:54:41;;;;;;;9.52;5.90;;;;;;;26.22;40.35;100332.56;4486409;32;33793;-68
2023/09/08 05:57:09;;;;;;;8.55;5.78;;;;;;;26.22;40.34;100329.81;4487057;32;34812;-69
2023/09/08 05:59:37;;;;;;;7.85;5.57;;;;;;;26.21;40.42;100325.44;4487429;32;33842;-68
2023/09/08 06:02:04;;;;;;;8.77;5.28;;;;;;;26.21;40.42;100330.91;4486352;32;32239;-69
2023/09/08 06:04:32;;;;;;;10.07;5.47;;;;;;;26.20;40.39;100330.03;4487875;32;33959;-71
2023/09/08 06:07:01;;;;;;;9.07;5.50;;;;;;;26.19;40.42;100333.00;4485931;32;33971;-69
2023/09/08 06:09:31;;;;;;;7.87;5.30;;;;;;;26.20;40.45;100332.78;4483839;32;33798;-70
2023/09/08 06:11:59;;;;;;;7.28;5.12;;;;;;;26.20;40.46;100332.78;4484959;32;34172;-69
2023/09/08 06:14:27;;;;;;;9.82;5.20;;;;;;;26.18;40.52;100329.44;4484875;32;33887;-70
2023/09/08 06:16:54;;;;;;;8.50;5.05;;;;;;;26.18;40.53;100334.91;4484877;32;33785;-69
2023/09/08 06:19:22;;;;;;;7.82;4.97;;;;;;;26.18;40.55;100339.56;4484732;32;33256;-68
2023/09/08 06:21:50;;;;;;;7.82;5.12;;;;;;;26.17;40.56;100344.19;4484798;32;33168;-68
2023/09/08 06:24:18;;;;;;;10.55;5.05;;;;;;;26.18;40.59;100350.50;4484609;32;33464;-68
2023/09/08 06:26:45;;;;;;;9.20;5.18;;;;;;;26.17;40.57;100349.66;4483470;32;34822;-69
2023/09/08 06:29:13;;;;;;;8.57;5.80;;;;;;;26.18;40.57;100345.03;4484910;32;34731;-69
2023/09/08 06:31:41;;;;;;;9.75;5.40;;;;;;;26.17;40.62;100348.84;4484255;32;33382;-69
2023/09/08 06:34:12;;;;;;;11.60;5.25;;;;;;;26.17;40.62;100348.84;4484982;32;33830;-67
2023/09/08 06:36:40;;;;;;;9.48;5.25;;;;;;;26.17;40.66;100349.66;4484768;32;34663;-69
2023/09/08 06:39:07;;;;;;;11.95;5.45;;;;;;;26.16;40.72;100349.88;4484799;32;34561;-69
2023/09/08 06:41:35;;;;;;;8.35;5.20;;;;;;;26.16;40.73;100345.28;4483274;32;32548;-68
2023/09/08 06:44:03;;;;;;;9.35;5.57;;;;;;;26.17;40.72;100351.56;4484875;32;34710;-68
2023/09/08 06:46:31;;;;;;;11.82;5.60;;;;;;;26.15;40.69;100351.78;4484458;32;34749;-68
2023/09/08 06:48:58;;;;;;;8.27;5.43;;;;;;;26.17;40.65;100354.31;4484509;32;34402;-68
2023/09/08 06:51:28;;;;;;;8.73;5.40;;;;;;;26.17;40.60;100354.31;4484728;32;33849;-69
2023/09/08 06:53:56;;;;;;;7.90;5.30;;;;;;;26.17;40.54;100348.84;4484305;32;33994;-68
2023/09/08 06:56:24;;;;;;;9.15;5.40;;;;;;;26.16;40.61;100350.75;4484525;32;34088;-68
2023/09/08 06:58:53;;;;;;;8.93;5.40;;;;;;;26.16;40.62;100347.16;4484710;32;34808;-68
2023/09/08 07:01:21;;;;;;;8.43;5.20;;;;;;;26.16;40.50;100344.41;4483552;32;33846;-68
2023/09/08 07:03:49;;;;;;;7.82;5.78;;;;;;;26.15;40.47;100349.03;4484736;32;34456;-69
2023/09/08 07:06:17;;;;;;;9.35;5.80;;;;;;;26.16;40.52;100348.00;4484391;32;34040;-68
2023/09/08 07:08:45;;;;;;;8.45;5.60;;;;;;;26.16;40.42;100348.00;4484625;32;34562;-68
2023/09/08 07:11:13;;;;;;;9.60;5.78;;;;;;;26.15;40.38;100357.25;4484587;32;34167;-68
2023/09/08 07:13:44;;;;;;;8.23;5.68;;;;;;;26.15;40.40;100353.69;4484516;32;34629;-68
2023/09/08 07:16:13;;;;;;;9.05;5.37;;;;;;;26.15;40.34;100354.53;4484299;32;33622;-69
2023/09/08 07:18:41;;;;;;;9.60;5.72;;;;;;;26.17;40.25;100348.84;4483352;32;34949;-68
2023/09/08 07:21:08;;;;;;;7.40;4.93;;;;;;;26.16;40.26;100344.41;4484210;32;34562;-68
2023/09/08 07:23:37;;;;;;;8.52;5.47;;;;;;;26.15;40.29;100340.84;4484471;32;33982;-68
2023/09/08 07:26:05;;;;;;;7.85;5.25;;;;;;;26.16;40.25;100341.66;4484549;32;33954;-68
2023/09/08 07:28:34;;;;;;;8.82;5.37;;;;;;;26.17;40.30;100343.38;4484187;32;33935;-68
2023/09/08 07:31:06;;;;;;;7.72;5.68;;;;;;;26.15;40.30;100335.37;4484649;32;34253;-68
2023/09/08 07:33:36;;;;;;;7.93;5.80;;;;;;;26.16;40.24;100331.59;4483302;32;33991;-68
2023/09/08 07:36:05;;;;;;;9.52;5.97;;;;;;;26.17;40.24;100326.97;4484409;32;34603;-68
2023/09/08 07:38:33;;;;;;;10.13;6.32;;;;;;;26.16;40.23;100328.84;4484197;32;33812;-67
2023/09/08 07:41:02;;;;;;;8.13;5.57;;;;;;;26.17;40.18;100324.22;4482897;32;33859;-68
2023/09/08 07:43:30;;;;;;;9.90;5.70;;;;;;;26.15;40.15;100326.34;4483064;32;33163;-68
2023/09/08 07:45:57;;;;;;;10.82;6.20;;;;;;;26.16;40.09;100320.66;4482966;32;33970;-68
2023/09/08 07:48:25;;;;;;;10.32;5.65;;;;;;;26.16;40.16;100323.38;4483718;32;33685;-68
2023/09/08 07:50:53;;;;;;;9.43;5.60;;;;;;;26.17;40.21;100318.75;4484229;32;33061;-68
2023/09/08 07:53:21;;;;;;;9.73;6.07;;;;;;;26.17;40.27;100318.75;4484255;32;34798;-68
2023/09/08 07:55:48;;;;;;;9.07;5.62;;;;;;;26.18;40.23;100323.16;4483961;32;34117;-68
2023/09/08 07:58:16;;;;;;;10.55;6.10;;;;;;;26.18;40.25;100320.41;4484208;32;34240;-68
2023/09/08 08:00:44;;;;;;;13.52;6.18;;;;;;;26.19;40.29;100320.16;4484126;32;34263;-68
2023/09/08 08:03:11;;;;;;;8.65;5.50;;;;;;;26.20;40.25;100321.00;4482684;32;33530;-68
2023/09/08 08:05:39;;;;;;;9.80;5.28;;;;;;;26.20;40.19;100321.81;4484387;32;33961;-67
2023/09/08 08:18:55;;;;;;;10.10;6.10;;;;;;;26.18;40.36;100326.72;4472016;32;33631;-68
2023/09/08 08:21:23;;;;;;;12.30;6.40;;;;;;;26.19;40.40;100320.16;4483345;32;33494;-68
2023/09/08 08:23:51;;;;;;;8.77;5.53;;;;;;;26.19;40.42;100325.63;4482349;32;33387;-68
2023/09/08 08:26:18;;;;;;;11.95;6.25;;;;;;;26.22;40.40;100321.63;4482902;32;34209;-69
2023/09/08 08:28:46;;;;;;;8.75;5.87;;;;;;;26.23;40.38;100316.97;4468540;32;34988;-68
2023/09/08 08:31:14;;;;;;;13.02;6.35;;;;;;;26.24;40.40;100324.13;4476486;32;33369;-69
2023/09/08 08:33:42;;;;;;;10.25;6.03;;;;;;;26.25;40.45;100318.41;4483922;32;33646;-69
2023/09/08 08:36:10;;;;;;;9.77;5.65;;;;;;;26.26;40.49;100314.63;4474519;32;33496;-68
2023/09/08 08:38:38;;;;;;;12.25;6.57;;;;;;;26.27;40.48;100313.53;4482239;32;33871;-68
2023/09/08 08:41:06;;;;;;;10.32;6.12;;;;;;;26.28;40.47;100311.63;4483373;32;34588;-69
2023/09/08 08:43:33;;;;;;;9.55;6.07;;;;;;;26.29;40.46;100311.41;4474147;32;34286;-69
2023/09/08 08:46:01;;;;;;;13.43;5.68;;;;;;;26.28;40.50;100304.25;4466729;32;33577;-69
2023/09/08 08:48:29;;;;;;;11.82;6.72;;;;;;;26.30;40.58;100304.87;4466415;32;33938;-69
2023/09/08 08:50:58;;;;;;;10.07;5.75;;;;;;;26.31;40.64;100300.25;4476102;32;33736;-69
2023/09/08 08:53:27;;;;;;;11.35;5.78;;;;;;;26.31;40.66;100300.25;4482585;32;33166;-69
2023/09/08 08:55:56;;;;;;;9.40;6.07;;;;;;;26.31;40.65;100298.34;4482022;32;33831;-69
2023/09/08 08:58:26;;;;;;;11.88;5.90;;;;;;;26.32;40.63;100301.91;4482164;32;34407;-69
2023/09/08 09:00:56;;;;;;;;;;;;;;;26.34;40.58;100306.06;4481856;32;33758;-69
2023/09/08 09:03:26;;;;;;;15.10;6.35;;;;;;;26.43;40.41;100303.84;4483087;32;34145;-69
2023/09/08 09:05:54;;;;;;;11.07;6.25;;;;;;;26.36;40.68;100300.38;4483674;32;35351;-69
2023/09/08 09:08:23;;;;;;;12.70;6.18;;;;;;;26.35;40.71;100304.19;4482125;32;33647;-69
2023/09/08 09:10:52;;;;;;;8.80;5.78;;;;;;;26.36;40.69;100303.09;4475027;32;33658;-69
2023/09/08 09:13:19;;;;;;;10.38;5.82;;;;;;;26.38;40.60;100300.97;4466277;32;34297;-68
2023/09/08 09:15:50;;;;;;;9.80;5.22;;;;;;;26.36;40.60;100301.19;4466213;32;33424;-69
2023/09/08 09:18:18;;;;;;;11.20;5.95;;;;;;;26.38;40.67;100296.31;4466287;32;34155;-68
2023/09/08 09:20:53;;;;;;;9.27;5.70;;;;;;;26.40;40.61;100291.47;4473372;32;33755;-69
2023/09/08 09:23:31;;;;;;;9.38;6.05;;;;;;;26.43;40.56;100292.91;4468730;32;33094;-69
2023/09/08 09:26:00;;;;;;;10.00;5.47;;;;;;;26.43;40.54;100287.44;4482944;32;34111;-69
2023/09/08 09:28:28;;;;;;;11.15;6.40;;;;;;;26.43;40.55;100290.19;4481639;32;34094;-69
2023/09/08 09:30:58;;;;;;;13.32;6.47;;;;;;;26.43;40.53;100281.97;4474159;32;34566;-69
2023/09/08 09:33:25;;;;;;;11.68;6.22;;;;;;;26.43;40.56;100284.69;4466042;32;34021;-69
2023/09/08 09:35:54;;;;;;;8.75;5.97;;;;;;;26.44;40.60;100287.22;4467187;32;33710;-69
2023/09/08 09:38:21;;;;;;;11.60;6.07;;;;;;;26.47;40.62;100285.91;4467185;32;34680;-69
2023/09/08 09:40:48;;;;;;;10.57;6.12;;;;;;;26.48;40.50;100284.00;4471921;32;33853;-69
2023/09/08 09:43:20;;;;;;;10.57;6.28;;;;;;;26.51;40.41;100278.06;4484482;32;33411;-69
2023/09/08 09:45:47;;;;;;;8.93;5.68;;;;;;;26.53;40.33;100290.44;4483772;32;33507;-69
2023/09/08 09:48:15;;;;;;;8.48;5.85;;;;;;;26.53;40.33;100286.84;4483806;32;34060;-69
2023/09/08 09:50:43;;;;;;;8.05;5.93;;;;;;;26.52;40.36;100280.56;4477759;32;33964;-69
2023/09/08 09:53:14;;;;;;;10.10;6.18;;;;;;;26.52;40.35;100283.28;4469135;32;34342;-69
2023/09/08 09:55:43;;;;;;;7.82;5.65;;;;;;;26.50;40.38;100279.97;4468078;32;34693;-69
2023/09/08 09:58:11;;;;;;;9.25;5.50;;;;;;;26.53;40.39;100281.37;4469282;32;33652;-69
2023/09/08 10:00:47;;;;;;;9.25;5.85;;;;;;;26.53;40.36;100287.69;4472501;32;34041;-69
2023/09/08 10:03:16;;;;;;;9.15;5.75;;;;;;;26.53;40.35;100276.75;4484733;32;33495;-69
2023/09/08 10:05:44;;;;;;;8.65;5.93;;;;;;;26.56;40.33;100284.50;4483752;32;33404;-69
2023/09/08 10:08:11;;;;;;;10.88;6.43;;;;;;;26.60;40.27;100282.94;4483745;32;33669;-69
2023/09/08 10:10:41;;;;;;;9.95;5.57;;;;;;;26.61;40.06;100279.12;4478655;32;33883;-69
2023/09/08 10:13:08;;;;;;;12.68;6.10;;;;;;;26.60;39.89;100282.94;4469104;32;33009;-69
2023/09/08 10:15:36;;;;;;;8.07;5.47;;;;;;;26.60;39.89;100280.22;4467777;32;34052;-68
2023/09/08 10:18:04;;;;;;;10.95;5.78;;;;;;;26.62;39.93;100274.50;4468837;32;34029;-69
2023/09/08 10:20:33;;;;;;;11.50;5.43;;;;;;;26.63;39.81;100282.50;4472685;32;34028;-69
2023/09/08 10:23:24;;;;;;;7.78;5.60;;;;;;;26.64;39.68;100275.94;4482471;32;33559;-68
2023/09/08 10:25:54;;;;;;;10.43;6.03;;;;;;;26.68;39.61;100270.84;4457077;32;34353;-68
2023/09/08 10:28:22;;;;;;;13.82;5.80;;;;;;;26.66;39.65;100276.53;4467483;32;33826;-69
2023/09/08 10:30:49;;;;;;;7.28;5.35;;;;;;;26.71;39.70;100275.81;4479672;32;33916;-70
2023/09/08 10:33:17;;;;;;;8.70;5.25;;;;;;;26.66;39.71;100270.22;4470619;32;33540;-69
2023/09/08 10:35:45;;;;;;;9.70;5.53;;;;;;;26.69;39.70;100270.59;4484580;32;34568;-69
2023/09/08 10:38:26;;;;;;;8.68;5.53;;;;;;;26.71;39.42;100271.16;4484521;32;33934;-69
2023/09/08 10:41:14;;;;;;;8.90;5.78;;;;;;;26.74;39.37;100258.94;4471962;32;34302;-68
2023/09/08 10:43:45;;;;;;;10.98;6.12;;;;;;;26.72;39.29;100252.88;4468209;32;33379;-69
2023/09/08 10:46:28;;;;;;;8.80;5.47;;;;;;;26.74;39.37;100252.62;4469917;32;34023;-69
2023/09/08 10:49:10;;;;;;;9.00;5.93;;;;;;;26.76;39.45;100250.47;4475966;32;33550;-69
2023/09/08 10:51:38;;;;;;;9.68;5.80;;;;;;;26.73;39.57;100257.25;4467507;32;34634;-68
2023/09/08 10:54:06;;;;;;;9.70;6.30;;;;;;;26.71;39.68;100252.00;4473046;32;33085;-69
2023/09/08 10:56:55;;;;;;;11.48;6.03;;;;;;;26.74;39.60;100258.09;4467580;32;34648;-69
2023/09/08 10:59:35;;;;;;;9.63;5.75;;;;;;;26.74;39.51;100256.19;4467816;32;34125;-69
2023/09/08 11:02:05;;;;;;;14.23;6.90;;;;;;;26.73;39.39;100251.78;4467521;32;34029;-69
2023/09/08 11:04:35;;;;;;;10.70;5.47;;;;;;;26.73;39.47;100253.69;4480637;32;34113;-69
2023/09/08 11:07:03;;;;;;;10.35;5.82;;;;;;;26.72;39.65;100255.59;4470158;32;34698;-68
2023/09/08 11:09:36;;;;;;;11.45;5.40;;;;;;;26.72;39.70;100247.37;4483059;32;33741;-69
2023/09/08 11:12:05;;;;;;;10.35;5.70;;;;;;;26.74;39.83;100244.41;4484359;32;33939;-69
2023/09/08 11:14:33;;;;;;;10.48;5.68;;;;;;;26.74;39.85;100239.75;4483141;32;34271;-69
2023/09/08 11:17:02;;;;;;;11.88;6.28;;;;;;;26.73;39.71;100240.00;4469164;32;34796;-69
2023/09/08 11:19:47;;;;;;;;;;;;;;;26.73;39.52;100240.00;4469037;32;34005;-69
2023/09/08 11:22:15;;;;;;;9.55;5.70;;;;;;;26.83;39.51;100234.75;4468605;32;34801;-69
2023/09/08 11:24:43;;;;;;;8.55;5.82;;;;;;;26.80;39.43;100230.59;4479348;32;34135;-69
2023/09/08 11:27:11;;;;;;;9.07;6.00;;;;;;;26.80;38.49;100236.06;4484482;32;33395;-68
2023/09/08 11:29:40;;;;;;;9.25;5.75;;;;;;;26.87;37.87;100231.31;4484119;32;35433;-69
2023/09/08 11:32:08;;;;;;;11.32;5.15;;;;;;;26.88;37.28;100226.66;4483032;32;34121;-69
2023/09/08 11:34:36;;;;;;;8.10;5.37;;;;;;;26.85;37.46;100225.22;4466829;32;34423;-69
2023/09/08 11:37:10;;;;;;;8.80;5.82;;;;;;;26.86;37.75;100221.44;4454249;32;34652;-69
2023/09/08 11:39:41;;;;;;;8.30;5.40;;;;;;;26.85;38.19;100227.97;4468874;32;33662;-68
2023/09/08 11:42:09;;;;;;;9.82;5.95;;;;;;;26.84;38.21;100223.56;4467241;32;34583;-69